Time;durP1;ratioP1;P1;durP2;ratioP2;P2;SDS_P1;SDS_P2;PMS_P1;PMS_P2;Temp;Humidity;BMP_temperature;BMP_pressure;BME280_temperature;BME280_humidity;BME280_pressure;Samples;Min_cycle;Max_cycle;Signal;HPM_P1;HPM_P2
2021/10/05 00:00:31;;;;;;;7.88;4.40;;;11.20;97.20;;;;;;4989777;28;20034;-82
2021/10/05 00:02:57;;;;;;;5.00;4.35;;;11.20;97.00;;;;;;4992992;28;20073;-82
2021/10/05 00:05:23;;;;;;;7.65;4.07;;;11.20;97.00;;;;;;4995474;28;20030;-82
2021/10/05 00:07:49;;;;;;;6.82;4.85;;;11.30;96.90;;;;;;4991504;28;20030;-82
2021/10/05 00:10:15;;;;;;;7.50;4.45;;;11.30;96.80;;;;;;4984791;28;20398;-82
2021/10/05 00:12:41;;;;;;;6.22;4.38;;;11.30;96.70;;;;;;4990906;28;20081;-82
2021/10/05 00:15:08;;;;;;;7.45;4.35;;;11.30;96.60;;;;;;4994368;28;20031;-82
2021/10/05 00:17:34;;;;;;;8.23;4.50;;;11.40;96.50;;;;;;4992416;28;20018;-82
2021/10/05 00:20:00;;;;;;;7.85;4.70;;;11.40;96.20;;;;;;4992363;28;20026;-83
2021/10/05 00:22:26;;;;;;;7.43;4.53;;;11.40;96.30;;;;;;4994921;28;20117;-83
2021/10/05 00:24:52;;;;;;;6.75;4.10;;;11.40;96.20;;;;;;4993371;28;20124;-83
2021/10/05 00:27:17;;;;;;;6.63;4.50;;;11.50;96.10;;;;;;4989067;28;20109;-83
2021/10/05 00:29:43;;;;;;;6.45;4.53;;;11.50;96.20;;;;;;4992584;28;20501;-83
2021/10/05 00:32:09;;;;;;;6.25;4.18;;;11.50;96.40;;;;;;4995001;28;20105;-83
2021/10/05 00:34:35;;;;;;;6.47;4.90;;;11.50;96.20;;;;;;4994014;28;20042;-83
2021/10/05 00:37:00;;;;;;;8.18;4.45;;;11.60;96.00;;;;;;4993882;28;20026;-83
2021/10/05 00:39:26;;;;;;;7.25;4.70;;;11.60;96.10;;;;;;4994554;28;20022;-83
2021/10/05 00:41:53;;;;;;;9.73;4.70;;;11.50;96.50;;;;;;4992115;28;20034;-83
2021/10/05 00:44:37;;;;;;;7.15;4.68;;;11.50;96.50;;;;;;4996195;28;20062;-82
2021/10/05 00:47:12;;;;;;;7.65;5.07;;;11.60;96.20;;;;;;4994940;28;20042;-82
2021/10/05 00:49:39;;;;;;;6.72;4.03;;;11.60;96.00;;;;;;4993724;28;20031;-82
2021/10/05 00:52:06;;;;;;;6.70;4.97;;;11.60;96.00;;;;;;4988576;28;20113;-82
2021/10/05 00:54:36;;;;;;;6.85;4.70;;;11.70;96.00;;;;;;4991911;28;20110;-83
2021/10/05 00:57:04;;;;;;;8.30;4.82;;;11.60;96.50;;;;;;4988552;28;20027;-83
2021/10/05 00:59:33;;;;;;;6.28;4.50;;;11.70;96.20;;;;;;4990948;28;20493;-83
2021/10/05 01:02:06;;;;;;;6.25;4.20;;;11.70;96.00;;;;;;4988844;28;20038;-83
2021/10/05 01:04:31;;;;;;;8.70;4.40;;;11.70;95.80;;;;;;4992734;28;20034;-83
2021/10/05 01:07:01;;;;;;;7.35;4.22;;;11.70;95.90;;;;;;4999696;28;20497;-83
2021/10/05 01:09:27;;;;;;;8.55;4.55;;;11.70;96.10;;;;;;4993590;28;20065;-83
2021/10/05 01:11:54;;;;;;;8.43;4.95;;;11.70;96.20;;;;;;4992237;28;20031;-83
2021/10/05 01:14:20;;;;;;;8.85;4.85;;;11.70;96.10;;;;;;4992832;28;20038;-83
2021/10/05 01:16:47;;;;;;;8.73;5.38;;;11.70;96.10;;;;;;4989069;28;20366;-83
2021/10/05 01:19:13;;;;;;;9.65;5.45;;;11.70;95.90;;;;;;4988431;28;20018;-83
2021/10/05 01:21:38;;;;;;;10.65;4.93;;;11.70;95.90;;;;;;4994379;28;20031;-83
2021/10/05 01:24:06;;;;;;;10.35;5.32;;;11.70;96.00;;;;;;4992307;28;20129;-83
2021/10/05 01:26:32;;;;;;;7.93;4.72;;;11.70;96.10;;;;;;4987324;28;20031;-83
2021/10/05 01:29:02;;;;;;;8.65;5.53;;;11.70;95.90;;;;;;4992129;28;20026;-83
2021/10/05 01:31:30;;;;;;;9.40;5.28;;;11.70;95.90;;;;;;4989756;28;20552;-83
2021/10/05 01:33:56;;;;;;;10.82;5.22;;;11.70;95.80;;;;;;4993711;28;20481;-83
2021/10/05 01:36:21;;;;;;;8.18;4.95;;;11.80;96.00;;;;;;4990701;28;20061;-83
2021/10/05 01:38:47;;;;;;;9.38;4.90;;;11.80;95.90;;;;;;4993425;28;20913;-83
2021/10/05 01:41:13;;;;;;;8.18;5.13;;;11.70;96.00;;;;;;4986125;28;20106;-83
2021/10/05 01:43:39;;;;;;;8.90;4.90;;;11.70;96.00;;;;;;4985245;28;20034;-83
2021/10/05 01:46:11;;;;;;;9.50;5.07;;;11.70;96.00;;;;;;4988107;28;20497;-83
2021/10/05 01:48:37;;;;;;;8.23;4.65;;;11.80;95.90;;;;;;4995781;28;20038;-83
2021/10/05 01:51:03;;;;;;;11.43;5.72;;;11.70;96.00;;;;;;4990514;28;20027;-83
2021/10/05 01:53:30;;;;;;;10.38;5.53;;;11.70;96.20;;;;;;4990249;28;20489;-83
2021/10/05 01:55:55;;;;;;;9.68;5.32;;;11.70;96.10;;;;;;4991277;28;20026;-83
2021/10/05 01:58:21;;;;;;;9.30;5.70;;;11.70;96.00;;;;;;4992453;28;20160;-83
2021/10/05 02:00:47;;;;;;;8.95;5.00;;;11.70;96.00;;;;;;4990026;28;20027;-83
2021/10/05 02:03:14;;;;;;;9.82;5.60;;;11.70;96.20;;;;;;4988266;28;20417;-83
2021/10/05 02:05:41;;;;;;;9.63;4.90;;;11.70;96.20;;;;;;4987380;28;20034;-82
2021/10/05 02:08:07;;;;;;;9.73;5.90;;;11.70;96.20;;;;;;4992433;28;20122;-82
2021/10/05 02:10:33;;;;;;;9.07;5.45;;;11.60;96.30;;;;;;4982299;28;20034;-82
2021/10/05 02:12:59;;;;;;;9.35;5.57;;;11.50;96.50;;;;;;4990250;28;20023;-83
2021/10/05 02:15:25;;;;;;;9.23;5.32;;;11.50;96.60;;;;;;4993426;28;20069;-83
2021/10/05 02:17:50;;;;;;;12.52;6.22;;;11.50;96.80;;;;;;4992071;28;20066;-84
2021/10/05 02:20:16;;;;;;;11.90;5.72;;;11.50;96.70;;;;;;4983332;28;20375;-84
2021/10/05 02:22:42;;;;;;;11.65;5.80;;;11.50;96.70;;;;;;4984305;28;20477;-84
2021/10/05 02:25:08;;;;;;;9.32;5.28;;;11.50;96.60;;;;;;4992496;28;20031;-83
2021/10/05 02:27:34;;;;;;;7.70;4.78;;;11.50;96.50;;;;;;4992405;28;20041;-83
2021/10/05 02:30:00;;;;;;;9.95;6.18;;;11.50;96.50;;;;;;4992690;28;20035;-83
2021/10/05 02:32:26;;;;;;;9.38;4.97;;;11.50;96.50;;;;;;4991875;28;20048;-83
2021/10/05 02:34:52;;;;;;;9.65;5.38;;;11.60;96.50;;;;;;4992033;28;20121;-83
2021/10/05 02:37:17;;;;;;;12.20;5.95;;;11.60;96.40;;;;;;4993988;28;20023;-83
2021/10/05 02:39:44;;;;;;;10.13;5.63;;;11.60;96.40;;;;;;4992444;28;20023;-83
2021/10/05 02:42:10;;;;;;;11.48;5.80;;;11.60;96.30;;;;;;4990919;28;20034;-83
2021/10/05 02:44:37;;;;;;;9.80;5.32;;;11.60;96.70;;;;;;4993899;28;20558;-84
2021/10/05 02:47:03;;;;;;;10.35;5.80;;;11.70;96.60;;;;;;4990774;28;20037;-84
2021/10/05 02:49:29;;;;;;;9.10;5.50;;;11.70;96.50;;;;;;4990319;28;20390;-84
2021/10/05 02:51:55;;;;;;;10.68;5.63;;;11.70;96.40;;;;;;4989103;28;20033;-84
2021/10/05 02:54:20;;;;;;;8.15;5.30;;;11.70;96.20;;;;;;4988874;28;20026;-83
2021/10/05 02:56:46;;;;;;;10.45;5.28;;;11.70;96.10;;;;;;4991285;28;20037;-83
2021/10/05 02:59:13;;;;;;;8.57;4.78;;;11.70;96.10;;;;;;4993359;28;21054;-83
2021/10/05 03:01:39;;;;;;;11.07;6.03;;;11.70;96.00;;;;;;4987924;28;20041;-83
2021/10/05 03:04:05;;;;;;;9.05;5.05;;;11.80;96.10;;;;;;4992789;28;20865;-83
2021/10/05 03:06:31;;;;;;;11.20;5.38;;;11.70;96.10;;;;;;4994017;28;20042;-83
2021/10/05 03:08:56;;;;;;;9.65;5.35;;;11.70;96.20;;;;;;4994464;28;20121;-83
2021/10/05 03:11:22;;;;;;;12.50;5.90;;;11.70;96.30;;;;;;4995551;28;20030;-83
2021/10/05 03:13:48;;;;;;;11.63;5.85;;;11.70;96.30;;;;;;4991835;28;20572;-83
2021/10/05 03:16:14;;;;;;;12.10;6.05;;;11.70;96.30;;;;;;4984846;28;20034;-83
2021/10/05 03:18:41;;;;;;;11.55;5.63;;;11.80;96.20;;;;;;4991585;28;20029;-83
2021/10/05 03:21:11;;;;;;;9.05;4.97;;;11.80;95.90;;;;;;4991765;28;20026;-83
2021/10/05 03:23:37;;;;;;;10.52;5.13;;;11.80;95.80;;;;;;4991739;28;20058;-83
2021/10/05 03:26:04;;;;;;;11.18;5.63;;;11.80;96.10;;;;;;4992598;28;20062;-83
2021/10/05 03:28:31;;;;;;;12.15;5.68;;;11.80;96.00;;;;;;4992017;28;20034;-83
2021/10/05 03:30:59;;;;;;;11.80;5.93;;;11.80;96.20;;;;;;4985967;28;20038;-83
2021/10/05 03:33:25;;;;;;;12.65;6.15;;;11.80;96.20;;;;;;4991886;28;20033;-83
2021/10/05 03:35:50;;;;;;;11.98;5.78;;;11.70;96.30;;;;;;4992164;28;20091;-83
2021/10/05 03:38:16;;;;;;;13.27;5.97;;;11.80;96.40;;;;;;4994527;28;20337;-83
2021/10/05 03:40:42;;;;;;;9.73;5.68;;;11.70;96.50;;;;;;4995487;28;20026;-83
2021/10/05 03:43:07;;;;;;;10.15;5.85;;;11.70;96.50;;;;;;4995877;28;20050;-83
2021/10/05 03:45:33;;;;;;;11.25;5.63;;;11.70;96.70;;;;;;4998510;28;20098;-83
2021/10/05 03:47:59;;;;;;;11.75;5.75;;;11.70;96.70;;;;;;4997133;28;20041;-83
2021/10/05 03:50:25;;;;;;;14.55;6.75;;;11.70;96.50;;;;;;4999806;28;20036;-83
2021/10/05 03:52:51;;;;;;;13.10;6.60;;;11.70;96.40;;;;;;4994370;28;20040;-83
2021/10/05 03:55:17;;;;;;;11.05;6.07;;;11.80;96.40;;;;;;4994814;28;20046;-83
2021/10/05 03:57:43;;;;;;;12.40;6.43;;;11.80;96.30;;;;;;4991928;28;20400;-83
2021/10/05 04:00:09;;;;;;;12.52;6.35;;;11.80;96.50;;;;;;4991761;28;20034;-83
2021/10/05 04:02:35;;;;;;;12.82;6.70;;;11.80;96.40;;;;;;4988221;28;20023;-83
2021/10/05 04:05:00;;;;;;;12.73;6.60;;;11.70;96.40;;;;;;4993445;28;20026;-83
2021/10/05 04:07:26;;;;;;;12.52;6.38;;;11.70;96.40;;;;;;4997775;28;20520;-83
2021/10/05 04:09:52;;;;;;;13.52;7.13;;;11.70;96.40;;;;;;4996548;28;20088;-83
2021/10/05 04:12:18;;;;;;;13.40;6.50;;;11.70;96.20;;;;;;4990158;28;20399;-83
2021/10/05 04:14:44;;;;;;;15.85;6.68;;;11.70;96.10;;;;;;4993008;28;20113;-83
2021/10/05 04:17:10;;;;;;;12.70;7.15;;;11.70;96.20;;;;;;4987346;28;20030;-83
2021/10/05 04:19:36;;;;;;;13.05;7.38;;;11.70;96.20;;;;;;4995740;28;20026;-83
2021/10/05 04:22:02;;;;;;;12.98;7.00;;;11.70;96.50;;;;;;4993024;28;20050;-83
2021/10/05 04:24:28;;;;;;;14.68;7.35;;;11.60;97.00;;;;;;4992950;28;20027;-83
2021/10/05 04:26:54;;;;;;;12.98;7.28;;;11.60;96.60;;;;;;4993677;28;20642;-83
2021/10/05 04:29:20;;;;;;;14.68;7.30;;;11.60;96.70;;;;;;5004548;28;20065;-83
2021/10/05 04:31:45;;;;;;;16.10;7.25;;;11.60;96.60;;;;;;5000790;28;20489;-83
2021/10/05 04:34:11;;;;;;;15.88;7.80;;;11.60;96.70;;;;;;4994200;28;20064;-83
2021/10/05 04:36:37;;;;;;;13.57;7.75;;;11.60;96.70;;;;;;4995467;28;20030;-83
2021/10/05 04:39:03;;;;;;;13.10;7.47;;;11.60;96.80;;;;;;4995647;28;20031;-83
2021/10/05 04:41:29;;;;;;;13.93;6.75;;;11.50;96.70;;;;;;4994901;28;20049;-83
2021/10/05 04:43:54;;;;;;;15.05;8.15;;;11.60;96.70;;;;;;4991534;28;20041;-83
2021/10/05 04:46:20;;;;;;;18.63;8.55;;;11.60;97.20;;;;;;5001308;28;20404;-83
2021/10/05 04:48:46;;;;;;;16.30;7.78;;;11.50;96.70;;;;;;5002494;28;20023;-83
2021/10/05 04:51:11;;;;;;;15.32;8.18;;;11.50;96.80;;;;;;5005467;28;20038;-83
2021/10/05 04:53:37;;;;;;;16.92;7.93;;;11.50;96.90;;;;;;4996500;28;20045;-83
2021/10/05 04:56:04;;;;;;;15.90;7.80;;;11.50;97.10;;;;;;4994833;28;20034;-83
2021/10/05 04:58:29;;;;;;;13.77;8.02;;;11.50;97.10;;;;;;4987407;28;20019;-83
2021/10/05 05:00:56;;;;;;;14.48;7.45;;;11.50;97.00;;;;;;4989897;28;20033;-83
2021/10/05 05:03:23;;;;;;;16.10;7.38;;;11.50;97.00;;;;;;4987813;28;20397;-83
2021/10/05 05:05:49;;;;;;;18.10;7.90;;;11.50;97.30;;;;;;4986216;28;20058;-83
2021/10/05 05:08:14;;;;;;;14.82;7.50;;;11.50;97.40;;;;;;4986759;28;20095;-83
2021/10/05 05:10:40;;;;;;;16.73;7.75;;;11.60;97.10;;;;;;4987163;28;20037;-83
2021/10/05 05:13:05;;;;;;;14.80;7.18;;;11.50;97.00;;;;;;4986925;28;20038;-83
2021/10/05 05:15:31;;;;;;;17.85;7.07;;;11.50;97.20;;;;;;4988489;28;20031;-83
2021/10/05 05:17:57;;;;;;;14.38;7.00;;;11.50;97.20;;;;;;4991709;28;20026;-83
2021/10/05 05:20:22;;;;;;;12.40;6.47;;;11.50;97.30;;;;;;4985404;28;20030;-83
2021/10/05 05:22:48;;;;;;;16.58;7.40;;;11.50;97.40;;;;;;4984551;28;20084;-84
2021/10/05 05:25:14;;;;;;;13.95;7.18;;;11.50;97.40;;;;;;4987764;28;20053;-83
2021/10/05 05:27:40;;;;;;;17.60;8.02;;;11.50;97.50;;;;;;4986654;28;20034;-83
2021/10/05 05:30:06;;;;;;;15.35;7.53;;;11.50;97.40;;;;;;4998182;28;20030;-83
2021/10/05 05:32:32;;;;;;;16.50;7.82;;;11.50;97.30;;;;;;4986063;28;20654;-83
2021/10/05 05:34:58;;;;;;;16.63;7.93;;;11.50;97.40;;;;;;4984206;28;20062;-84
2021/10/05 05:37:24;;;;;;;15.68;7.78;;;11.50;97.50;;;;;;4985138;28;20548;-83
2021/10/05 05:39:50;;;;;;;18.83;7.95;;;11.50;97.50;;;;;;4985915;28;20450;-83
2021/10/05 05:42:16;;;;;;;14.60;7.40;;;11.50;97.40;;;;;;4997981;28;20105;-83
2021/10/05 05:44:41;;;;;;;14.23;6.63;;;11.50;97.50;;;;;;4985001;28;20583;-83
2021/10/05 05:47:07;;;;;;;15.20;7.15;;;11.50;97.60;;;;;;4988374;28;20097;-83
2021/10/05 05:49:33;;;;;;;14.73;7.28;;;11.50;97.50;;;;;;4985342;28;20076;-83
2021/10/05 05:51:59;;;;;;;14.20;7.13;;;11.50;97.50;;;;;;5000203;28;20034;-83
2021/10/05 05:54:25;;;;;;;13.98;7.53;;;11.50;97.50;;;;;;4985813;28;20069;-83
2021/10/05 05:56:50;;;;;;;14.40;7.05;;;11.50;97.40;;;;;;5001116;28;20023;-83
2021/10/05 05:59:16;;;;;;;13.13;6.57;;;11.50;97.40;;;;;;4984260;28;20199;-83
2021/10/05 06:01:42;;;;;;;12.95;6.32;;;11.50;97.20;;;;;;4983738;28;20034;-83
2021/10/05 06:04:08;;;;;;;12.23;6.60;;;11.50;97.40;;;;;;4998494;28;20036;-83
2021/10/05 06:06:34;;;;;;;14.45;6.72;;;11.50;97.40;;;;;;4981961;28;20409;-83
2021/10/05 06:09:01;;;;;;;14.15;6.82;;;11.50;97.30;;;;;;4984353;28;20105;-83
2021/10/05 06:11:40;;;;;;;12.25;6.10;;;11.50;97.40;;;;;;4984120;28;20062;-83
2021/10/05 06:14:05;;;;;;;14.13;6.35;;;11.50;97.40;;;;;;4985195;28;20041;-83
2021/10/05 06:16:31;;;;;;;14.52;7.38;;;11.50;97.50;;;;;;4984864;28;20030;-83
2021/10/05 06:18:57;;;;;;;11.35;6.13;;;11.60;97.40;;;;;;4984620;28;20481;-83
2021/10/05 06:21:22;;;;;;;11.77;6.68;;;11.60;97.30;;;;;;4982960;28;20027;-83
2021/10/05 06:23:48;;;;;;;12.32;5.93;;;11.60;97.20;;;;;;4986034;28;20583;-83
2021/10/05 06:26:14;;;;;;;14.07;6.80;;;11.70;97.00;;;;;;4983184;28;20030;-83
2021/10/05 06:28:43;;;;;;;13.82;6.75;;;11.70;97.10;;;;;;4982956;28;20027;-83
2021/10/05 06:31:09;;;;;;;14.40;7.53;;;11.70;97.00;;;;;;4984539;28;20055;-83
2021/10/05 06:33:35;;;;;;;14.10;6.55;;;11.70;96.90;;;;;;4983049;28;20084;-83
2021/10/05 06:36:01;;;;;;;12.27;5.95;;;11.70;97.20;;;;;;4985540;28;21697;-83
2021/10/05 06:38:26;;;;;;;13.80;6.82;;;11.60;97.40;;;;;;4985559;28;20077;-83
2021/10/05 06:40:52;;;;;;;12.15;6.40;;;11.70;97.30;;;;;;4986250;28;20030;-83
2021/10/05 06:43:20;;;;;;;11.25;6.05;;;11.70;97.10;;;;;;4986090;28;20165;-83
2021/10/05 06:45:46;;;;;;;12.95;6.78;;;11.70;97.00;;;;;;4981832;28;20050;-83
2021/10/05 06:48:12;;;;;;;11.10;5.88;;;11.80;96.90;;;;;;4984467;28;20501;-83
2021/10/05 06:50:37;;;;;;;13.43;6.57;;;11.70;96.90;;;;;;4984543;28;20042;-83
2021/10/05 06:53:05;;;;;;;11.98;6.20;;;11.70;96.90;;;;;;4984750;28;20049;-83
2021/10/05 06:55:31;;;;;;;11.65;5.72;;;11.70;97.30;;;;;;4983837;28;20120;-83
2021/10/05 06:57:59;;;;;;;11.50;6.30;;;11.70;97.10;;;;;;4982293;28;20023;-83
2021/10/05 07:00:25;;;;;;;13.18;6.00;;;11.70;97.00;;;;;;4983293;28;20041;-84
2021/10/05 07:02:51;;;;;;;11.90;6.30;;;11.70;97.10;;;;;;4985307;28;20034;-84
2021/10/05 07:05:19;;;;;;;12.80;6.32;;;11.70;97.10;;;;;;4986424;28;20511;-84
2021/10/05 07:07:48;;;;;;;12.93;6.43;;;11.70;97.20;;;;;;4984948;28;20038;-84
2021/10/05 07:10:14;;;;;;;;;;;11.70;97.20;;;;;;4985923;28;20148;-84
2021/10/05 07:12:41;;;;;;;12.93;5.75;;;11.80;97.20;;;;;;4983764;28;19913;-84
2021/10/05 07:15:09;;;;;;;13.57;6.57;;;11.80;97.00;;;;;;4985920;28;20520;-84
2021/10/05 07:17:35;;;;;;;13.60;7.57;;;11.80;97.00;;;;;;4986488;28;20029;-85
2021/10/05 07:20:01;;;;;;;15.32;7.55;;;11.80;97.10;;;;;;4987132;28;20038;-84
2021/10/05 07:22:28;;;;;;;11.27;6.72;;;11.80;97.00;;;;;;4984077;28;20074;-84
2021/10/05 07:24:53;;;;;;;15.98;6.95;;;11.80;97.10;;;;;;4982432;28;20088;-84
2021/10/05 07:27:19;;;;;;;16.00;7.78;;;11.80;97.20;;;;;;4998141;28;20030;-84
2021/10/05 07:29:45;;;;;;;14.32;7.68;;;11.80;97.20;;;;;;4985039;28;20033;-84
2021/10/05 07:32:11;;;;;;;18.88;7.78;;;11.80;97.20;;;;;;4983465;28;20030;-84
2021/10/05 07:34:37;;;;;;;17.02;7.85;;;11.80;97.00;;;;;;4985627;28;20034;-84
2021/10/05 07:37:03;;;;;;;18.27;8.48;;;11.80;97.00;;;;;;4989059;28;20536;-84
2021/10/05 07:39:29;;;;;;;18.90;8.55;;;11.80;97.00;;;;;;4987994;28;20037;-84
2021/10/05 07:41:55;;;;;;;17.90;8.88;;;11.80;96.90;;;;;;4982749;28;20023;-84
2021/10/05 07:44:20;;;;;;;16.17;8.10;;;11.80;97.10;;;;;;4982662;28;20109;-84
2021/10/05 07:46:47;;;;;;;16.42;8.55;;;11.80;97.10;;;;;;4985267;28;20126;-84
2021/10/05 07:49:13;;;;;;;18.55;7.85;;;11.80;97.10;;;;;;4984677;28;20512;-84
2021/10/05 07:51:39;;;;;;;15.43;7.95;;;11.80;97.10;;;;;;4985665;28;20030;-84
2021/10/05 07:54:05;;;;;;;15.50;8.60;;;11.90;97.30;;;;;;4978268;28;20110;-84
2021/10/05 07:56:32;;;;;;;16.50;7.95;;;11.90;97.30;;;;;;4985372;28;20103;-84
2021/10/05 07:58:58;;;;;;;15.73;7.68;;;11.90;96.90;;;;;;4984391;28;20018;-83
2021/10/05 08:01:24;;;;;;;21.67;7.78;;;11.90;97.30;;;;;;4983558;28;21585;-80
2021/10/05 08:03:49;;;;;;;14.77;8.23;;;11.90;97.30;;;;;;4983011;28;20030;-84
2021/10/05 08:06:15;;;;;;;12.68;7.35;;;11.90;97.20;;;;;;4998810;28;20082;-84
2021/10/05 08:08:41;;;;;;;13.63;6.65;;;12.00;97.20;;;;;;4983726;28;20054;-84
2021/10/05 08:11:07;;;;;;;14.57;7.38;;;11.90;97.20;;;;;;4985153;28;20038;-84
2021/10/05 08:13:32;;;;;;;13.45;6.82;;;12.00;97.00;;;;;;4983976;28;20088;-84
2021/10/05 08:15:58;;;;;;;12.48;6.45;;;12.00;96.90;;;;;;4983751;28;20030;-83
2021/10/05 08:18:23;;;;;;;11.95;6.63;;;12.00;96.80;;;;;;4984084;28;20030;-83
2021/10/05 08:20:50;;;;;;;15.40;6.40;;;12.00;96.90;;;;;;4986716;28;20034;-84
2021/10/05 08:23:16;;;;;;;12.70;6.78;;;12.10;97.00;;;;;;4985876;28;20034;-84
2021/10/05 08:25:43;;;;;;;11.13;6.50;;;12.10;97.10;;;;;;4986868;28;21664;-84
2021/10/05 08:28:10;;;;;;;16.15;6.93;;;12.10;96.40;;;;;;4987449;28;20026;-84
2021/10/05 08:30:36;;;;;;;14.07;8.07;;;12.10;97.00;;;;;;4986203;28;20097;-84
2021/10/05 08:33:02;;;;;;;12.95;6.55;;;12.10;96.80;;;;;;4987680;28;21164;-84
2021/10/05 08:35:28;;;;;;;13.77;7.53;;;12.10;96.60;;;;;;4987398;28;20113;-84
2021/10/05 08:37:56;;;;;;;13.00;6.65;;;12.20;96.40;;;;;;4988166;28;20495;-84
2021/10/05 08:40:22;;;;;;;;;;;12.20;96.50;;;;;;4988687;28;20034;-83
2021/10/05 08:42:48;;;;;;;11.77;6.75;;;12.20;96.30;;;;;;4987301;28;19992;-83
2021/10/05 08:45:14;;;;;;;12.23;7.10;;;12.20;96.20;;;;;;4986429;28;20026;-83
2021/10/05 08:47:39;;;;;;;12.90;7.18;;;12.30;96.20;;;;;;4987827;28;20042;-83
2021/10/05 08:50:06;;;;;;;13.70;7.03;;;12.40;96.60;;;;;;4988159;28;20920;-83
2021/10/05 08:52:33;;;;;;;10.93;6.47;;;12.50;96.50;;;;;;4986713;28;20038;-83
2021/10/05 08:55:00;;;;;;;11.00;6.53;;;12.50;95.70;;;;;;4986011;28;20505;-83
2021/10/05 08:57:25;;;;;;;11.90;6.30;;;12.50;95.40;;;;;;4996640;28;20117;-83
2021/10/05 08:59:51;;;;;;;12.65;5.90;;;12.50;95.50;;;;;;4984444;28;20103;-83
2021/10/05 09:02:19;;;;;;;10.13;6.90;;;12.60;95.10;;;;;;4984835;28;20650;-83
2021/10/05 09:04:47;;;;;;;9.57;5.07;;;12.50;94.90;;;;;;4985460;28;20042;-83
2021/10/05 09:07:16;;;;;;;;;;;12.60;94.80;;;;;;4986978;28;20034;-83
2021/10/05 09:09:56;;;;;;;9.90;5.60;;;12.60;95.00;;;;;;4986536;28;20380;-83
2021/10/05 09:12:30;;;;;;;10.68;5.85;;;12.60;95.10;;;;;;4985965;28;20041;-83
2021/10/05 09:14:57;;;;;;;10.20;5.47;;;12.60;95.70;;;;;;4986672;28;20363;-83
2021/10/05 09:17:25;;;;;;;9.30;5.40;;;12.70;95.70;;;;;;4985919;28;20031;-83
2021/10/05 09:19:52;;;;;;;9.65;5.18;;;12.70;94.80;;;;;;4984632;28;20026;-83
2021/10/05 09:22:22;;;;;;;9.52;5.55;;;12.80;95.60;;;;;;4985799;28;20037;-83
2021/10/05 09:24:50;;;;;;;11.35;5.78;;;12.90;95.60;;;;;;4984472;28;20041;-83
2021/10/05 09:27:17;;;;;;;9.35;4.55;;;13.00;95.00;;;;;;4983704;28;20417;-83
2021/10/05 09:29:44;;;;;;;8.27;4.70;;;13.00;94.60;;;;;;4985508;28;20038;-83
2021/10/05 09:32:16;;;;;;;8.70;5.57;;;13.10;94.80;;;;;;4983415;28;20035;-83
2021/10/05 09:34:51;;;;;;;7.72;4.93;;;13.10;94.70;;;;;;4984860;28;20381;-83
2021/10/05 09:37:20;;;;;;;7.78;4.93;;;13.10;94.50;;;;;;4987444;28;20026;-83
2021/10/05 09:39:52;;;;;;;8.60;4.90;;;13.10;94.10;;;;;;4987456;28;20037;-84
2021/10/05 09:42:29;;;;;;;10.32;5.20;;;13.20;94.30;;;;;;4985864;28;20029;-83
2021/10/05 09:45:04;;;;;;;10.82;5.68;;;13.20;93.80;;;;;;4985190;28;20513;-83
2021/10/05 09:47:40;;;;;;;11.25;5.55;;;13.30;93.90;;;;;;4984413;28;20038;-83
2021/10/05 09:50:13;;;;;;;11.77;5.57;;;13.30;94.20;;;;;;4994080;28;20097;-83
2021/10/05 09:52:47;;;;;;;9.73;5.55;;;13.40;93.40;;;;;;4986692;28;20512;-83
2021/10/05 09:55:15;;;;;;;10.65;5.38;;;13.40;93.30;;;;;;4985668;28;20048;-83
2021/10/05 09:57:42;;;;;;;12.38;5.65;;;13.40;93.20;;;;;;4985565;28;20050;-83
2021/10/05 10:00:10;;;;;;;11.35;5.85;;;13.40;92.60;;;;;;4983545;28;20460;-83
2021/10/05 10:02:37;;;;;;;12.70;6.05;;;13.40;93.00;;;;;;4998649;28;20038;-83
2021/10/05 10:05:06;;;;;;;10.70;5.40;;;13.40;93.20;;;;;;4983049;28;20031;-83
2021/10/05 10:07:31;;;;;;;;;;;13.40;92.50;;;;;;4987117;28;20026;-83
2021/10/05 10:09:57;;;;;;;7.43;4.72;;;13.50;93.50;;;;;;4984154;28;19913;-83
2021/10/05 10:12:23;;;;;;;8.63;4.97;;;13.50;93.10;;;;;;4987046;28;20030;-83
2021/10/05 10:14:53;;;;;;;10.77;4.95;;;13.60;92.20;;;;;;4985043;28;20517;-83
2021/10/05 10:17:23;;;;;;;9.35;4.88;;;13.60;92.20;;;;;;4985808;28;20105;-84
2021/10/05 10:19:49;;;;;;;7.43;4.22;;;13.60;92.50;;;;;;4996112;28;20489;-83
2021/10/05 10:22:15;;;;;;;11.20;5.07;;;13.50;92.80;;;;;;4985250;28;20026;-83
2021/10/05 10:24:47;;;;;;;6.78;4.03;;;13.60;92.50;;;;;;4985228;28;20049;-83
2021/10/05 10:27:14;;;;;;;8.63;4.70;;;13.70;92.70;;;;;;4985076;28;20060;-83
2021/10/05 10:29:40;;;;;;;6.95;3.80;;;13.70;92.20;;;;;;4990730;28;20136;-83
2021/10/05 10:32:11;;;;;;;9.05;4.30;;;13.80;92.40;;;;;;4993582;28;20517;-83
2021/10/05 10:34:38;;;;;;;7.38;3.72;;;13.90;92.80;;;;;;4996952;28;20034;-84
2021/10/05 10:37:14;;;;;;;8.88;4.18;;;13.90;92.70;;;;;;4991498;28;20050;-84
2021/10/05 10:39:43;;;;;;;8.80;4.20;;;13.90;92.40;;;;;;4986524;28;20050;-84
2021/10/05 10:42:09;;;;;;;6.95;3.92;;;13.90;92.20;;;;;;4987796;28;20475;-83
2021/10/05 10:44:38;;;;;;;7.72;3.85;;;13.90;91.70;;;;;;5003730;28;20030;-83
2021/10/05 10:47:13;;;;;;;12.27;3.88;;;14.00;92.30;;;;;;5001587;28;20024;-83
2021/10/05 10:49:40;;;;;;;6.38;3.53;;;13.90;91.40;;;;;;5007395;28;20382;-83
2021/10/05 10:52:07;;;;;;;5.63;3.20;;;13.90;92.10;;;;;;4987573;28;20036;-83
2021/10/05 10:54:33;;;;;;;6.95;3.60;;;13.80;92.40;;;;;;4985152;28;20129;-83
2021/10/05 10:57:05;;;;;;;8.05;4.10;;;13.80;91.60;;;;;;4983412;28;20046;-83
2021/10/05 10:59:32;;;;;;;5.82;3.40;;;13.80;91.60;;;;;;4985938;28;20029;-83
2021/10/05 11:02:03;;;;;;;7.10;3.90;;;13.70;92.40;;;;;;4998584;28;21003;-83
2021/10/05 11:04:30;;;;;;;5.72;3.55;;;13.70;91.90;;;;;;4985728;28;20477;-83
2021/10/05 11:06:58;;;;;;;8.07;4.40;;;13.70;92.20;;;;;;4984740;28;20030;-83
2021/10/05 11:09:28;;;;;;;11.25;3.97;;;13.60;91.40;;;;;;4985739;28;20070;-83
2021/10/05 11:11:57;;;;;;;9.40;4.88;;;13.60;92.20;;;;;;4985395;28;20034;-83
2021/10/05 11:14:31;;;;;;;5.55;3.50;;;13.60;92.30;;;;;;4999638;28;20129;-83
2021/10/05 11:17:01;;;;;;;6.20;3.50;;;13.60;91.50;;;;;;4985701;28;20481;-83
2021/10/05 11:19:29;;;;;;;6.57;3.85;;;13.70;92.20;;;;;;4982884;28;20026;-83
2021/10/05 11:21:56;;;;;;;6.95;3.95;;;13.60;92.10;;;;;;4986943;28;20054;-83
2021/10/05 11:24:21;;;;;;;6.78;3.17;;;13.60;91.80;;;;;;4983847;28;20042;-83
2021/10/05 11:26:50;;;;;;;5.90;3.15;;;13.70;92.20;;;;;;4983581;28;20674;-83
2021/10/05 11:29:43;;;;;;;5.65;3.42;;;13.80;92.30;;;;;;4984673;28;20073;-83
2021/10/05 11:32:12;;;;;;;6.93;3.10;;;13.90;92.00;;;;;;4980361;28;20035;-83
2021/10/05 11:34:41;;;;;;;5.30;3.42;;;13.90;92.10;;;;;;4983696;28;20687;-83
2021/10/05 11:37:11;;;;;;;3.92;3.17;;;13.90;92.20;;;;;;4983103;28;20022;-84
2021/10/05 11:39:39;;;;;;;5.68;2.90;;;13.90;91.10;;;;;;4984250;28;20035;-84
2021/10/05 11:42:10;;;;;;;;;;;13.90;91.10;;;;;;4999931;28;20443;-83
2021/10/05 11:44:53;;;;;;;3.90;2.85;;;14.00;90.90;;;;;;4993047;28;19918;-83
2021/10/05 11:47:21;;;;;;;6.50;3.20;;;14.00;90.50;;;;;;4977449;28;20125;-83
2021/10/05 11:49:50;;;;;;;3.42;2.80;;;14.00;90.80;;;;;;4981071;28;20525;-83
2021/10/05 11:52:24;;;;;;;5.60;2.38;;;13.90;90.20;;;;;;4983620;28;20491;-83
2021/10/05 11:54:52;;;;;;;3.80;2.58;;;13.90;90.40;;;;;;4983530;28;20026;-83
2021/10/05 11:57:21;;;;;;;4.70;3.13;;;13.90;90.80;;;;;;4985261;28;20027;-83
2021/10/05 11:59:47;;;;;;;4.82;3.33;;;13.90;91.10;;;;;;4981683;28;20102;-83
2021/10/05 12:02:15;;;;;;;3.60;2.85;;;13.90;90.90;;;;;;4987357;28;20575;-83
2021/10/05 12:04:44;;;;;;;5.18;2.75;;;13.90;90.70;;;;;;4987639;28;20034;-83
2021/10/05 12:07:15;;;;;;;3.75;3.03;;;13.90;90.80;;;;;;4985640;28;20038;-84
2021/10/05 12:09:41;;;;;;;4.13;2.97;;;13.90;90.20;;;;;;4985783;28;20093;-84
2021/10/05 12:12:18;;;;;;;5.88;3.15;;;13.90;91.00;;;;;;4986771;28;20030;-84
2021/10/05 12:15:01;;;;;;;6.45;2.72;;;13.90;90.90;;;;;;4987355;28;20026;-84
2021/10/05 12:17:27;;;;;;;4.68;3.10;;;13.90;91.20;;;;;;4987224;28;20035;-84
2021/10/05 12:19:58;;;;;;;3.35;2.45;;;14.00;90.30;;;;;;4987655;28;20033;-84
2021/10/05 12:22:31;;;;;;;5.07;3.22;;;14.20;91.70;;;;;;4986272;28;20049;-80
2021/10/05 12:24:58;;;;;;;3.85;2.78;;;14.20;90.40;;;;;;4987661;28;20121;-80
2021/10/05 12:27:30;;;;;;;5.10;2.95;;;14.20;90.40;;;;;;4989145;28;20069;-81
2021/10/05 12:30:17;;;;;;;4.03;2.78;;;14.30;90.20;;;;;;5003547;28;20030;-82
2021/10/05 12:32:48;;;;;;;4.13;3.00;;;14.30;91.10;;;;;;5004715;28;20051;-84
2021/10/05 12:35:23;;;;;;;3.40;2.50;;;14.30;89.80;;;;;;5007578;28;20037;-83
2021/10/05 12:37:56;;;;;;;6.10;2.45;;;14.40;90.30;;;;;;5008148;28;20481;-83
2021/10/05 12:40:21;;;;;;;4.38;2.42;;;14.30;89.40;;;;;;4996257;28;20041;-83
2021/10/05 12:42:51;;;;;;;4.93;2.50;;;14.40;89.90;;;;;;4993565;28;20033;-83